createdAt,value
2018-08-06T00:00:37.622Z,45.00
2018-08-06T00:05:39.825Z,45.10
2018-08-06T00:10:42.028Z,44.50
2018-08-06T00:15:44.303Z,46.10
2018-08-06T00:20:46.493Z,46.60
2018-08-06T00:25:48.677Z,46.90
2018-08-06T00:30:50.861Z,47.70
2018-08-06T00:35:53.045Z,47.80
2018-08-06T00:40:55.230Z,48.00
2018-08-06T00:45:57.413Z,47.70
2018-08-06T00:50:59.597Z,48.20
2018-08-06T00:56:01.789Z,48.40
2018-08-06T01:01:03.998Z,48.10
2018-08-06T01:06:06.363Z,50.30
2018-08-06T01:11:08.553Z,49.30
2018-08-06T01:16:10.709Z,49.20
2018-08-06T01:21:12.969Z,50.00
2018-08-06T01:26:15.130Z,50.10
2018-08-06T01:31:17.305Z,50.30
2018-08-06T01:36:19.509Z,49.90
2018-08-06T01:41:21.677Z,50.20
2018-08-06T01:46:23.845Z,50.50
2018-08-06T01:51:25.989Z,49.00
2018-08-06T01:56:28.455Z,48.80
2018-08-06T02:01:30.605Z,47.60
2018-08-06T02:06:32.785Z,47.80
2018-08-06T02:11:35.301Z,48.60
2018-08-06T02:16:37.484Z,48.20
2018-08-06T02:21:39.664Z,48.30
2018-08-06T02:26:41.850Z,47.90
2018-08-06T02:31:44.052Z,47.90
2018-08-06T02:36:46.273Z,48.00
2018-08-06T02:41:48.429Z,48.00
2018-08-06T02:46:50.637Z,47.90
2018-08-06T02:51:52.845Z,47.80
2018-08-06T02:56:55.073Z,48.10
2018-08-06T03:01:57.252Z,47.90
2018-08-06T03:06:59.448Z,48.60
2018-08-06T03:12:01.654Z,48.70
2018-08-06T03:17:03.993Z,49.30
2018-08-06T03:22:06.277Z,49.50
2018-08-06T03:27:08.463Z,49.70
2018-08-06T03:32:10.692Z,49.70
2018-08-06T03:37:12.934Z,50.00
2018-08-06T03:42:15.119Z,50.30
2018-08-06T03:47:17.265Z,50.50
2018-08-06T03:52:19.421Z,50.60
2018-08-06T03:57:21.621Z,51.30
2018-08-06T04:02:23.829Z,52.20
2018-08-06T04:07:25.969Z,52.60
2018-08-06T04:12:28.125Z,52.60
2018-08-06T04:17:30.277Z,53.20
2018-08-06T04:22:32.443Z,53.70
2018-08-06T04:27:34.958Z,54.30
2018-08-06T04:32:37.176Z,53.80
2018-08-06T04:37:39.521Z,52.80
2018-08-06T04:42:42.417Z,52.10
2018-08-06T04:47:44.585Z,51.30
2018-08-06T04:52:46.728Z,51.00
2018-08-06T04:57:48.875Z,50.10
2018-08-06T05:02:51.038Z,49.40
2018-08-06T05:07:53.209Z,48.80
2018-08-06T05:12:55.393Z,48.30
2018-08-06T05:17:57.551Z,48.20
2018-08-06T05:22:59.802Z,49.00
2018-08-06T05:28:02.029Z,47.90
2018-08-06T05:33:04.342Z,46.00
2018-08-06T05:38:06.544Z,45.10
2018-08-06T05:43:08.725Z,44.80
2018-08-06T05:48:10.930Z,44.40
2018-08-06T05:53:13.097Z,43.90
2018-08-06T05:58:15.319Z,43.40
2018-08-06T06:03:17.539Z,43.10
2018-08-06T06:08:19.713Z,42.10
2018-08-06T06:13:21.921Z,41.30
2018-08-06T06:18:24.107Z,40.70
2018-08-06T06:23:26.355Z,40.00
2018-08-06T06:28:28.528Z,40.00
2018-08-06T06:33:30.729Z,39.80
2018-08-06T06:38:32.902Z,39.60
2018-08-06T06:43:35.093Z,38.80
2018-08-06T06:48:37.245Z,38.60
2018-08-06T06:53:39.408Z,38.50
2018-08-06T06:58:41.639Z,37.50
2018-08-06T07:03:43.833Z,37.30
2018-08-06T07:08:45.997Z,37.00
2018-08-06T07:13:48.247Z,36.50
2018-08-06T07:18:50.378Z,35.50
2018-08-06T07:23:52.525Z,34.60
2018-08-06T07:28:54.859Z,35.80
2018-08-06T07:33:57.125Z,36.50
2018-08-06T07:38:59.280Z,34.20
2018-08-06T07:44:01.483Z,33.60
2018-08-06T07:49:03.825Z,33.50
2018-08-06T07:54:06.037Z,33.60
2018-08-06T07:59:08.224Z,33.10
2018-08-06T08:04:10.422Z,32.00
2018-08-06T08:09:12.689Z,32.30
2018-08-06T08:14:14.875Z,31.90
2018-08-06T08:19:17.053Z,31.10
2018-08-06T08:24:19.193Z,32.50
2018-08-06T08:29:21.362Z,32.40
2018-08-06T08:34:23.526Z,32.00
2018-08-06T08:39:25.717Z,32.50
2018-08-06T08:44:27.868Z,31.70
2018-08-06T08:49:30.065Z,32.50
2018-08-06T08:54:32.217Z,31.70
2018-08-06T08:59:34.389Z,31.70
2018-08-06T09:04:36.548Z,30.90
2018-08-06T09:09:38.693Z,30.40
2018-08-06T09:14:40.842Z,30.80
2018-08-06T09:19:43.021Z,30.20
2018-08-06T09:24:45.184Z,30.10
2018-08-06T09:29:47.330Z,30.00
2018-08-06T09:34:49.470Z,30.10
2018-08-06T09:39:51.645Z,30.20
2018-08-06T09:44:53.810Z,29.50
2018-08-06T09:49:55.985Z,30.30
2018-08-06T09:54:58.953Z,29.40
2018-08-06T10:00:01.142Z,28.90
2018-08-06T10:05:03.441Z,29.20
2018-08-06T10:10:07.861Z,27.00
2018-08-06T10:15:10.857Z,27.20
2018-08-06T10:20:16.342Z,28.30
2018-08-06T10:25:18.549Z,28.10
2018-08-06T10:30:21.937Z,28.10
2018-08-06T10:35:24.017Z,26.60
2018-08-06T10:40:26.227Z,27.30
2018-08-06T10:45:28.385Z,27.50
2018-08-06T10:50:30.558Z,28.80
2018-08-06T10:55:32.745Z,26.90
2018-08-06T11:00:34.945Z,27.50
2018-08-06T11:05:37.122Z,28.20
2018-08-06T11:10:39.325Z,26.90
2018-08-06T11:15:41.505Z,26.90
2018-08-06T11:20:43.657Z,27.30
2018-08-06T11:25:45.835Z,26.80
2018-08-06T11:30:48.009Z,27.60
2018-08-06T11:35:50.222Z,27.50
2018-08-06T11:40:52.397Z,27.30
2018-08-06T11:45:54.575Z,27.10
2018-08-06T11:50:56.763Z,27.10
2018-08-06T11:55:58.950Z,26.80
2018-08-06T12:01:01.178Z,28.00
2018-08-06T12:06:03.456Z,27.50
2018-08-06T12:11:05.645Z,26.90
2018-08-06T12:16:07.854Z,27.30
2018-08-06T12:21:10.067Z,26.00
2018-08-06T12:26:12.279Z,27.30
2018-08-06T12:31:14.387Z,25.90
2018-08-06T12:36:16.598Z,27.30
2018-08-06T12:41:18.785Z,26.30
2018-08-06T12:46:21.039Z,26.90
2018-08-06T12:51:23.289Z,26.40
2018-08-06T12:56:25.493Z,26.70
2018-08-06T13:01:27.699Z,25.70
2018-08-06T13:06:29.880Z,26.00
2018-08-06T13:11:32.143Z,26.20
2018-08-06T13:16:34.454Z,25.70
2018-08-06T13:21:36.630Z,26.50
2018-08-06T13:26:38.807Z,26.40
2018-08-06T13:31:40.981Z,26.00
2018-08-06T13:36:43.257Z,26.70
2018-08-06T13:41:45.345Z,26.10
2018-08-06T13:46:47.580Z,26.60
2018-08-06T13:51:49.726Z,26.50
2018-08-06T13:56:51.907Z,26.10
2018-08-06T14:01:54.065Z,26.20
2018-08-06T14:06:56.222Z,27.10
2018-08-06T14:11:58.399Z,26.60
2018-08-06T14:17:00.558Z,26.10
2018-08-06T14:22:02.721Z,27.40
2018-08-06T14:27:04.889Z,27.60
2018-08-06T14:32:07.094Z,28.10
2018-08-06T14:37:09.353Z,27.50
2018-08-06T14:42:11.547Z,27.10
2018-08-06T14:47:13.706Z,26.80
2018-08-06T14:52:15.870Z,27.30
2018-08-06T14:57:18.051Z,28.20
2018-08-06T15:02:20.254Z,28.10
2018-08-06T15:07:22.441Z,27.10
2018-08-06T15:12:24.611Z,27.90
2018-08-06T15:17:28.244Z,27.10
2018-08-06T15:22:30.494Z,27.20
2018-08-06T15:27:32.690Z,27.50
2018-08-06T15:32:34.877Z,27.40
2018-08-06T15:37:37.913Z,27.00
2018-08-06T15:42:40.501Z,26.30
2018-08-06T15:47:43.549Z,26.00
2018-08-06T15:52:45.761Z,26.10
2018-08-06T15:57:47.955Z,26.70
2018-08-06T16:02:50.134Z,26.90
2018-08-06T16:07:52.317Z,25.40
2018-08-06T16:12:54.502Z,25.50
2018-08-06T16:17:56.692Z,26.60
2018-08-06T16:22:58.880Z,26.90
2018-08-06T16:28:01.378Z,27.40
2018-08-06T16:33:03.630Z,27.80
2018-08-06T16:38:05.854Z,28.10
2018-08-06T16:43:08.101Z,26.40
2018-08-06T16:48:10.298Z,26.30
2018-08-06T16:53:12.502Z,26.50
2018-08-06T16:58:14.666Z,25.90
2018-08-06T17:03:16.885Z,25.50
2018-08-06T17:08:19.069Z,26.00
2018-08-06T17:13:21.307Z,26.10
2018-08-06T17:18:23.553Z,26.60
2018-08-06T17:23:25.754Z,26.00
2018-08-06T17:28:27.938Z,25.50
2018-08-06T17:33:30.433Z,25.70
2018-08-06T17:38:32.628Z,25.50
2018-08-06T17:43:34.815Z,24.90
2018-08-06T17:48:37.037Z,25.20
2018-08-06T17:53:39.275Z,26.40
2018-08-06T17:58:41.507Z,26.60
2018-08-06T18:03:43.693Z,26.30
2018-08-06T18:08:45.966Z,27.00
2018-08-06T18:13:48.325Z,27.10
2018-08-06T18:18:50.565Z,27.10
2018-08-06T18:23:52.736Z,27.50
2018-08-06T18:28:54.941Z,28.00
2018-08-06T18:33:57.100Z,28.30
2018-08-06T18:38:59.286Z,29.10
2018-08-06T18:44:01.467Z,29.70
2018-08-06T18:49:03.947Z,30.40
2018-08-06T18:54:06.178Z,31.00
2018-08-06T18:59:08.398Z,31.10
2018-08-06T19:04:10.582Z,31.40
2018-08-06T19:09:15.561Z,31.70
2018-08-06T19:14:23.889Z,32.30
2018-08-06T19:19:27.502Z,33.20
2018-08-06T19:24:35.488Z,33.50
2018-08-06T19:29:37.596Z,34.00
2018-08-06T19:34:39.721Z,34.30
2018-08-06T19:39:41.928Z,35.40
2018-08-06T19:44:44.121Z,35.10
2018-08-06T19:49:51.976Z,35.10
2018-08-06T19:54:58.742Z,35.40
2018-08-06T20:00:00.910Z,35.80
2018-08-06T20:05:03.553Z,36.00
2018-08-06T20:10:08.880Z,36.40
2018-08-06T20:15:13.245Z,36.30
2018-08-06T20:20:15.434Z,36.30
2018-08-06T20:25:18.710Z,36.70
2018-08-06T20:30:21.820Z,36.80
2018-08-06T20:35:24.099Z,37.00
2018-08-06T20:40:26.304Z,37.00
2018-08-06T20:45:28.514Z,37.10
2018-08-06T20:50:30.705Z,37.60
2018-08-06T20:55:32.909Z,38.00
2018-08-06T21:00:35.105Z,38.20
2018-08-06T21:05:37.365Z,38.80
2018-08-06T21:10:39.579Z,38.70
2018-08-06T21:15:41.766Z,39.10
2018-08-06T21:20:44.006Z,39.50
2018-08-06T21:25:46.169Z,39.80
2018-08-06T21:30:48.368Z,39.60
2018-08-06T21:35:50.554Z,40.00
2018-08-06T21:40:52.785Z,40.00
2018-08-06T21:45:54.984Z,40.70
2018-08-06T21:50:57.169Z,40.10
2018-08-06T21:55:59.386Z,41.10
2018-08-06T22:01:01.575Z,41.40
2018-08-06T22:06:03.834Z,40.60
2018-08-06T22:11:06.214Z,41.50
2018-08-06T22:16:08.433Z,42.20
2018-08-06T22:21:10.623Z,42.60
2018-08-06T22:26:12.808Z,42.80
2018-08-06T22:31:14.981Z,43.60
2018-08-06T22:36:17.204Z,43.40
2018-08-06T22:41:19.463Z,43.40
2018-08-06T22:46:22.197Z,43.70
2018-08-06T22:51:24.393Z,43.60
2018-08-06T22:56:26.592Z,43.40
2018-08-06T23:01:28.797Z,44.20
2018-08-06T23:06:30.966Z,44.70
2018-08-06T23:11:33.137Z,45.30
2018-08-06T23:16:35.309Z,45.20
2018-08-06T23:21:37.510Z,45.80
2018-08-06T23:26:39.653Z,46.70
2018-08-06T23:31:41.852Z,46.00
2018-08-06T23:36:44.071Z,47.00
2018-08-06T23:41:46.249Z,47.30
2018-08-06T23:46:48.425Z,47.60
2018-08-06T23:51:50.594Z,47.40
2018-08-06T23:56:52.784Z,48.80
